sensor_id;sensor_type;location;lat;lon;timestamp;P1;durP1;ratioP1;P2;durP2;ratioP2
16401;SDS011;8310;44.626;11.176;2023-02-02T00:01:15;23.38;;;16.92;;
16401;SDS011;8310;44.626;11.176;2023-02-02T00:03:43;24.92;;;17.10;;
16401;SDS011;8310;44.626;11.176;2023-02-02T00:06:11;24.38;;;16.75;;
16401;SDS011;8310;44.626;11.176;2023-02-02T00:08:38;25.35;;;17.90;;
16401;SDS011;8310;44.626;11.176;2023-02-02T00:11:06;23.15;;;16.52;;
16401;SDS011;8310;44.626;11.176;2023-02-02T00:13:33;20.02;;;15.25;;
16401;SDS011;8310;44.626;11.176;2023-02-02T00:19:04;22.55;;;15.57;;
16401;SDS011;8310;44.626;11.176;2023-02-02T00:21:32;22.13;;;15.73;;
16401;SDS011;8310;44.626;11.176;2023-02-02T00:23:59;23.80;;;17.42;;
16401;SDS011;8310;44.626;11.176;2023-02-02T00:26:27;25.35;;;17.80;;
16401;SDS011;8310;44.626;11.176;2023-02-02T00:28:55;21.88;;;15.20;;
16401;SDS011;8310;44.626;11.176;2023-02-02T00:31:23;24.35;;;15.82;;
16401;SDS011;8310;44.626;11.176;2023-02-02T00:33:50;26.27;;;17.15;;
16401;SDS011;8310;44.626;11.176;2023-02-02T00:36:19;27.13;;;17.42;;
16401;SDS011;8310;44.626;11.176;2023-02-02T00:38:48;25.23;;;16.17;;
16401;SDS011;8310;44.626;11.176;2023-02-02T00:41:17;22.60;;;15.82;;
16401;SDS011;8310;44.626;11.176;2023-02-02T00:43:45;22.58;;;15.50;;
16401;SDS011;8310;44.626;11.176;2023-02-02T00:46:32;21.05;;;14.57;;
16401;SDS011;8310;44.626;11.176;2023-02-02T00:48:58;19.05;;;12.68;;
16401;SDS011;8310;44.626;11.176;2023-02-02T00:51:27;16.77;;;11.07;;
16401;SDS011;8310;44.626;11.176;2023-02-02T00:53:54;13.32;;;10.98;;
16401;SDS011;8310;44.626;11.176;2023-02-02T00:56:22;13.23;;;9.05;;
16401;SDS011;8310;44.626;11.176;2023-02-02T00:58:51;15.02;;;10.27;;
16401;SDS011;8310;44.626;11.176;2023-02-02T01:01:18;14.23;;;9.82;;
16401;SDS011;8310;44.626;11.176;2023-02-02T01:03:47;16.17;;;9.88;;
16401;SDS011;8310;44.626;11.176;2023-02-02T01:06:15;10.40;;;9.13;;
16401;SDS011;8310;44.626;11.176;2023-02-02T01:08:45;10.55;;;8.75;;
16401;SDS011;8310;44.626;11.176;2023-02-02T01:11:12;13.77;;;9.05;;
16401;SDS011;8310;44.626;11.176;2023-02-02T01:13:40;9.55;;;8.63;;
16401;SDS011;8310;44.626;11.176;2023-02-02T01:16:08;17.00;;;11.10;;
16401;SDS011;8310;44.626;11.176;2023-02-02T01:18:36;12.32;;;8.70;;
16401;SDS011;8310;44.626;11.176;2023-02-02T01:21:05;10.65;;;8.57;;
16401;SDS011;8310;44.626;11.176;2023-02-02T01:23:34;12.60;;;7.88;;
16401;SDS011;8310;44.626;11.176;2023-02-02T01:26:04;10.23;;;7.82;;
16401;SDS011;8310;44.626;11.176;2023-02-02T01:28:34;9.55;;;7.95;;
16401;SDS011;8310;44.626;11.176;2023-02-02T01:31:04;10.55;;;7.57;;
16401;SDS011;8310;44.626;11.176;2023-02-02T01:33:33;8.13;;;7.15;;
16401;SDS011;8310;44.626;11.176;2023-02-02T01:36:02;7.30;;;6.57;;
16401;SDS011;8310;44.626;11.176;2023-02-02T01:38:31;10.88;;;6.72;;
16401;SDS011;8310;44.626;11.176;2023-02-02T01:40:59;8.18;;;6.82;;
16401;SDS011;8310;44.626;11.176;2023-02-02T01:43:47;9.82;;;7.60;;
16401;SDS011;8310;44.626;11.176;2023-02-02T01:46:19;8.00;;;6.55;;
16401;SDS011;8310;44.626;11.176;2023-02-02T01:48:49;8.35;;;6.72;;
16401;SDS011;8310;44.626;11.176;2023-02-02T01:51:20;8.15;;;7.05;;
16401;SDS011;8310;44.626;11.176;2023-02-02T01:53:51;9.05;;;6.55;;
16401;SDS011;8310;44.626;11.176;2023-02-02T01:56:23;11.73;;;9.02;;
16401;SDS011;8310;44.626;11.176;2023-02-02T01:58:56;7.55;;;6.20;;
16401;SDS011;8310;44.626;11.176;2023-02-02T02:01:25;7.45;;;5.57;;
16401;SDS011;8310;44.626;11.176;2023-02-02T02:03:52;6.22;;;5.63;;
16401;SDS011;8310;44.626;11.176;2023-02-02T02:06:20;7.65;;;5.80;;
16401;SDS011;8310;44.626;11.176;2023-02-02T02:08:51;5.13;;;4.72;;
16401;SDS011;8310;44.626;11.176;2023-02-02T02:11:21;5.35;;;4.85;;
16401;SDS011;8310;44.626;11.176;2023-02-02T02:13:49;14.25;;;10.10;;
16401;SDS011;8310;44.626;11.176;2023-02-02T02:16:39;10.82;;;7.93;;
16401;SDS011;8310;44.626;11.176;2023-02-02T02:19:22;9.77;;;6.03;;
16401;SDS011;8310;44.626;11.176;2023-02-02T02:22:43;5.43;;;4.93;;
16401;SDS011;8310;44.626;11.176;2023-02-02T02:25:45;7.20;;;6.13;;
16401;SDS011;8310;44.626;11.176;2023-02-02T02:28:50;7.07;;;5.72;;
16401;SDS011;8310;44.626;11.176;2023-02-02T02:31:54;6.65;;;5.95;;
16401;SDS011;8310;44.626;11.176;2023-02-02T02:34:34;5.68;;;5.07;;
16401;SDS011;8310;44.626;11.176;2023-02-02T02:37:15;7.10;;;5.07;;
16401;SDS011;8310;44.626;11.176;2023-02-02T02:39:49;5.22;;;4.65;;
16401;SDS011;8310;44.626;11.176;2023-02-02T02:42:21;4.85;;;4.15;;
16401;SDS011;8310;44.626;11.176;2023-02-02T02:44:51;6.10;;;4.40;;
16401;SDS011;8310;44.626;11.176;2023-02-02T02:47:22;5.32;;;4.05;;
16401;SDS011;8310;44.626;11.176;2023-02-02T02:49:49;4.22;;;3.92;;
16401;SDS011;8310;44.626;11.176;2023-02-02T02:52:17;5.57;;;4.13;;
16401;SDS011;8310;44.626;11.176;2023-02-02T02:54:45;4.70;;;4.25;;
16401;SDS011;8310;44.626;11.176;2023-02-02T02:57:21;6.35;;;4.38;;
16401;SDS011;8310;44.626;11.176;2023-02-02T03:00:14;5.43;;;4.70;;
16401;SDS011;8310;44.626;11.176;2023-02-02T03:02:55;6.22;;;4.22;;
16401;SDS011;8310;44.626;11.176;2023-02-02T03:05:30;5.03;;;4.13;;
16401;SDS011;8310;44.626;11.176;2023-02-02T03:08:02;4.28;;;3.72;;
16401;SDS011;8310;44.626;11.176;2023-02-02T03:10:35;4.28;;;3.88;;
16401;SDS011;8310;44.626;11.176;2023-02-02T03:13:05;5.35;;;4.13;;
16401;SDS011;8310;44.626;11.176;2023-02-02T03:15:34;5.68;;;4.45;;
16401;SDS011;8310;44.626;11.176;2023-02-02T03:18:04;4.10;;;3.65;;
16401;SDS011;8310;44.626;11.176;2023-02-02T03:20:31;4.45;;;4.03;;
16401;SDS011;8310;44.626;11.176;2023-02-02T03:22:59;4.40;;;3.80;;
16401;SDS011;8310;44.626;11.176;2023-02-02T03:25:31;6.40;;;3.97;;
16401;SDS011;8310;44.626;11.176;2023-02-02T03:27:58;6.05;;;4.00;;
16401;SDS011;8310;44.626;11.176;2023-02-02T03:30:26;4.13;;;3.72;;
16401;SDS011;8310;44.626;11.176;2023-02-02T03:32:54;3.90;;;3.60;;
16401;SDS011;8310;44.626;11.176;2023-02-02T03:35:23;5.68;;;4.13;;
16401;SDS011;8310;44.626;11.176;2023-02-02T03:37:51;5.32;;;3.67;;
16401;SDS011;8310;44.626;11.176;2023-02-02T03:40:19;5.80;;;4.45;;
16401;SDS011;8310;44.626;11.176;2023-02-02T03:42:46;4.25;;;3.92;;
16401;SDS011;8310;44.626;11.176;2023-02-02T03:45:14;5.10;;;4.00;;
16401;SDS011;8310;44.626;11.176;2023-02-02T03:47:41;3.90;;;3.53;;
16401;SDS011;8310;44.626;11.176;2023-02-02T03:50:09;4.40;;;4.05;;
16401;SDS011;8310;44.626;11.176;2023-02-02T03:52:39;5.40;;;4.90;;
16401;SDS011;8310;44.626;11.176;2023-02-02T03:55:07;4.80;;;4.20;;
16401;SDS011;8310;44.626;11.176;2023-02-02T03:57:34;4.20;;;3.80;;
16401;SDS011;8310;44.626;11.176;2023-02-02T04:00:02;7.13;;;4.25;;
16401;SDS011;8310;44.626;11.176;2023-02-02T04:02:31;5.13;;;4.57;;
16401;SDS011;8310;44.626;11.176;2023-02-02T04:04:58;3.83;;;3.53;;
16401;SDS011;8310;44.626;11.176;2023-02-02T04:07:26;4.90;;;4.35;;
16401;SDS011;8310;44.626;11.176;2023-02-02T04:09:55;4.18;;;3.88;;
16401;SDS011;8310;44.626;11.176;2023-02-02T04:12:22;5.72;;;3.97;;
16401;SDS011;8310;44.626;11.176;2023-02-02T04:14:50;6.03;;;4.57;;
16401;SDS011;8310;44.626;11.176;2023-02-02T04:17:17;6.72;;;4.22;;
16401;SDS011;8310;44.626;11.176;2023-02-02T04:19:45;5.05;;;4.22;;
16401;SDS011;8310;44.626;11.176;2023-02-02T04:22:12;5.13;;;4.28;;
16401;SDS011;8310;44.626;11.176;2023-02-02T04:24:40;5.25;;;3.88;;
16401;SDS011;8310;44.626;11.176;2023-02-02T04:27:09;7.13;;;5.32;;
16401;SDS011;8310;44.626;11.176;2023-02-02T04:29:37;7.32;;;5.65;;
16401;SDS011;8310;44.626;11.176;2023-02-02T04:32:04;6.10;;;4.97;;
16401;SDS011;8310;44.626;11.176;2023-02-02T04:34:32;6.65;;;5.13;;
16401;SDS011;8310;44.626;11.176;2023-02-02T04:36:59;8.95;;;5.72;;
16401;SDS011;8310;44.626;11.176;2023-02-02T04:39:27;9.57;;;4.63;;
16401;SDS011;8310;44.626;11.176;2023-02-02T04:41:55;8.90;;;4.90;;
16401;SDS011;8310;44.626;11.176;2023-02-02T04:44:24;6.50;;;4.72;;
16401;SDS011;8310;44.626;11.176;2023-02-02T04:46:52;6.50;;;5.05;;
16401;SDS011;8310;44.626;11.176;2023-02-02T04:49:19;5.63;;;4.97;;
16401;SDS011;8310;44.626;11.176;2023-02-02T04:51:47;8.35;;;5.18;;
16401;SDS011;8310;44.626;11.176;2023-02-02T04:54:16;5.60;;;5.00;;
16401;SDS011;8310;44.626;11.176;2023-02-02T04:56:43;9.02;;;5.15;;
16401;SDS011;8310;44.626;11.176;2023-02-02T04:59:11;7.43;;;4.78;;
16401;SDS011;8310;44.626;11.176;2023-02-02T05:01:40;8.55;;;5.30;;
16401;SDS011;8310;44.626;11.176;2023-02-02T05:04:07;9.05;;;5.03;;
16401;SDS011;8310;44.626;11.176;2023-02-02T05:06:36;6.28;;;5.13;;
16401;SDS011;8310;44.626;11.176;2023-02-02T05:09:04;8.80;;;4.90;;
16401;SDS011;8310;44.626;11.176;2023-02-02T05:11:32;8.10;;;5.15;;
16401;SDS011;8310;44.626;11.176;2023-02-02T05:14:00;7.07;;;4.93;;
16401;SDS011;8310;44.626;11.176;2023-02-02T05:16:27;5.97;;;4.97;;
16401;SDS011;8310;44.626;11.176;2023-02-02T05:18:56;5.78;;;5.07;;
16401;SDS011;8310;44.626;11.176;2023-02-02T05:21:23;5.80;;;5.20;;
16401;SDS011;8310;44.626;11.176;2023-02-02T05:23:51;8.50;;;5.70;;
16401;SDS011;8310;44.626;11.176;2023-02-02T05:26:20;7.70;;;5.60;;
16401;SDS011;8310;44.626;11.176;2023-02-02T05:28:49;6.85;;;5.53;;
16401;SDS011;8310;44.626;11.176;2023-02-02T05:31:16;7.63;;;4.88;;
16401;SDS011;8310;44.626;11.176;2023-02-02T05:33:45;5.45;;;4.95;;
16401;SDS011;8310;44.626;11.176;2023-02-02T05:36:14;6.32;;;4.93;;
16401;SDS011;8310;44.626;11.176;2023-02-02T05:38:42;5.70;;;4.95;;
16401;SDS011;8310;44.626;11.176;2023-02-02T05:41:10;6.10;;;5.10;;
16401;SDS011;8310;44.626;11.176;2023-02-02T05:43:38;6.00;;;4.68;;
16401;SDS011;8310;44.626;11.176;2023-02-02T05:46:05;8.25;;;4.45;;
16401;SDS011;8310;44.626;11.176;2023-02-02T05:48:33;7.28;;;5.15;;
16401;SDS011;8310;44.626;11.176;2023-02-02T05:51:01;7.78;;;4.95;;
16401;SDS011;8310;44.626;11.176;2023-02-02T05:53:32;7.68;;;4.78;;
16401;SDS011;8310;44.626;11.176;2023-02-02T05:55:59;5.85;;;4.70;;
16401;SDS011;8310;44.626;11.176;2023-02-02T05:58:27;7.28;;;5.20;;
16401;SDS011;8310;44.626;11.176;2023-02-02T06:00:54;6.97;;;5.30;;
16401;SDS011;8310;44.626;11.176;2023-02-02T06:03:23;7.10;;;5.72;;
16401;SDS011;8310;44.626;11.176;2023-02-02T06:05:50;6.68;;;5.00;;
16401;SDS011;8310;44.626;11.176;2023-02-02T06:08:18;10.40;;;5.68;;
16401;SDS011;8310;44.626;11.176;2023-02-02T06:10:47;6.28;;;5.35;;
16401;SDS011;8310;44.626;11.176;2023-02-02T06:13:15;6.68;;;5.57;;
16401;SDS011;8310;44.626;11.176;2023-02-02T06:15:42;7.22;;;5.28;;
16401;SDS011;8310;44.626;11.176;2023-02-02T06:18:10;8.80;;;6.13;;
16401;SDS011;8310;44.626;11.176;2023-02-02T06:20:37;9.40;;;6.60;;
16401;SDS011;8310;44.626;11.176;2023-02-02T06:23:04;7.55;;;5.80;;
16401;SDS011;8310;44.626;11.176;2023-02-02T06:25:31;8.27;;;5.63;;
16401;SDS011;8310;44.626;11.176;2023-02-02T06:28:01;8.05;;;5.43;;
16401;SDS011;8310;44.626;11.176;2023-02-02T06:30:30;8.55;;;5.78;;
16401;SDS011;8310;44.626;11.176;2023-02-02T06:32:58;8.15;;;5.32;;
16401;SDS011;8310;44.626;11.176;2023-02-02T06:35:26;9.68;;;6.00;;
16401;SDS011;8310;44.626;11.176;2023-02-02T06:37:53;6.88;;;5.80;;
16401;SDS011;8310;44.626;11.176;2023-02-02T06:40:21;7.45;;;5.38;;
16401;SDS011;8310;44.626;11.176;2023-02-02T06:42:54;6.60;;;5.97;;
16401;SDS011;8310;44.626;11.176;2023-02-02T06:45:23;8.85;;;5.53;;
16401;SDS011;8310;44.626;11.176;2023-02-02T06:47:51;8.32;;;5.72;;
16401;SDS011;8310;44.626;11.176;2023-02-02T06:50:19;6.85;;;5.90;;
16401;SDS011;8310;44.626;11.176;2023-02-02T06:52:47;9.00;;;6.47;;
16401;SDS011;8310;44.626;11.176;2023-02-02T06:55:15;7.82;;;5.95;;
16401;SDS011;8310;44.626;11.176;2023-02-02T06:57:43;9.68;;;7.65;;
16401;SDS011;8310;44.626;11.176;2023-02-02T07:00:11;7.25;;;6.30;;
16401;SDS011;8310;44.626;11.176;2023-02-02T07:02:44;9.13;;;6.60;;
16401;SDS011;8310;44.626;11.176;2023-02-02T07:05:12;8.98;;;6.40;;
16401;SDS011;8310;44.626;11.176;2023-02-02T07:07:40;10.35;;;8.32;;
16401;SDS011;8310;44.626;11.176;2023-02-02T07:10:07;12.43;;;7.20;;
16401;SDS011;8310;44.626;11.176;2023-02-02T07:12:35;10.85;;;8.65;;
16401;SDS011;8310;44.626;11.176;2023-02-02T07:15:03;10.95;;;7.55;;
16401;SDS011;8310;44.626;11.176;2023-02-02T07:17:31;10.57;;;8.13;;
16401;SDS011;8310;44.626;11.176;2023-02-02T07:20:01;11.40;;;8.45;;
16401;SDS011;8310;44.626;11.176;2023-02-02T07:22:29;11.35;;;8.32;;
16401;SDS011;8310;44.626;11.176;2023-02-02T07:24:56;12.30;;;7.95;;
16401;SDS011;8310;44.626;11.176;2023-02-02T07:27:24;11.35;;;7.60;;
16401;SDS011;8310;44.626;11.176;2023-02-02T07:29:51;10.23;;;7.57;;
16401;SDS011;8310;44.626;11.176;2023-02-02T07:32:19;14.95;;;11.30;;
16401;SDS011;8310;44.626;11.176;2023-02-02T07:34:46;10.85;;;8.70;;
16401;SDS011;8310;44.626;11.176;2023-02-02T07:37:15;8.48;;;6.53;;
16401;SDS011;8310;44.626;11.176;2023-02-02T07:39:43;12.50;;;6.90;;
16401;SDS011;8310;44.626;11.176;2023-02-02T07:42:11;12.10;;;6.53;;
16401;SDS011;8310;44.626;11.176;2023-02-02T07:44:39;8.00;;;6.45;;
16401;SDS011;8310;44.626;11.176;2023-02-02T07:47:07;11.00;;;6.95;;
16401;SDS011;8310;44.626;11.176;2023-02-02T07:49:34;9.90;;;7.15;;
16401;SDS011;8310;44.626;11.176;2023-02-02T07:52:02;15.00;;;7.45;;
16401;SDS011;8310;44.626;11.176;2023-02-02T07:54:31;12.02;;;7.97;;
16401;SDS011;8310;44.626;11.176;2023-02-02T07:56:59;8.82;;;6.72;;
16401;SDS011;8310;44.626;11.176;2023-02-02T07:59:26;15.50;;;7.75;;
16401;SDS011;8310;44.626;11.176;2023-02-02T08:01:55;9.93;;;6.85;;
16401;SDS011;8310;44.626;11.176;2023-02-02T08:04:23;12.93;;;7.38;;
16401;SDS011;8310;44.626;11.176;2023-02-02T08:06:51;10.80;;;7.53;;
16401;SDS011;8310;44.626;11.176;2023-02-02T08:09:19;10.35;;;8.18;;
16401;SDS011;8310;44.626;11.176;2023-02-02T08:11:52;11.82;;;8.45;;
16401;SDS011;8310;44.626;11.176;2023-02-02T08:14:25;9.73;;;8.75;;
16401;SDS011;8310;44.626;11.176;2023-02-02T08:16:53;12.15;;;9.40;;
16401;SDS011;8310;44.626;11.176;2023-02-02T08:19:21;12.18;;;9.70;;
16401;SDS011;8310;44.626;11.176;2023-02-02T08:21:49;11.35;;;9.07;;
16401;SDS011;8310;44.626;11.176;2023-02-02T08:24:16;16.27;;;9.82;;
16401;SDS011;8310;44.626;11.176;2023-02-02T08:26:47;14.38;;;9.52;;
16401;SDS011;8310;44.626;11.176;2023-02-02T08:29:16;13.25;;;9.73;;
16401;SDS011;8310;44.626;11.176;2023-02-02T08:31:44;11.25;;;8.98;;
16401;SDS011;8310;44.626;11.176;2023-02-02T08:34:12;11.35;;;8.80;;
16401;SDS011;8310;44.626;11.176;2023-02-02T08:36:40;11.43;;;9.05;;
16401;SDS011;8310;44.626;11.176;2023-02-02T08:39:09;15.32;;;9.52;;
16401;SDS011;8310;44.626;11.176;2023-02-02T08:41:37;12.93;;;9.68;;
16401;SDS011;8310;44.626;11.176;2023-02-02T08:44:05;13.63;;;10.07;;
16401;SDS011;8310;44.626;11.176;2023-02-02T08:46:34;11.00;;;9.45;;
16401;SDS011;8310;44.626;11.176;2023-02-02T08:49:01;15.23;;;9.95;;
16401;SDS011;8310;44.626;11.176;2023-02-02T08:51:29;13.32;;;9.18;;
16401;SDS011;8310;44.626;11.176;2023-02-02T08:53:57;13.50;;;9.60;;
16401;SDS011;8310;44.626;11.176;2023-02-02T08:56:24;10.48;;;8.77;;
16401;SDS011;8310;44.626;11.176;2023-02-02T08:58:52;10.82;;;8.77;;
16401;SDS011;8310;44.626;11.176;2023-02-02T09:01:22;10.98;;;8.68;;
16401;SDS011;8310;44.626;11.176;2023-02-02T09:03:54;11.57;;;9.43;;
16401;SDS011;8310;44.626;11.176;2023-02-02T09:06:23;15.98;;;9.13;;
16401;SDS011;8310;44.626;11.176;2023-02-02T09:08:54;11.48;;;8.07;;
16401;SDS011;8310;44.626;11.176;2023-02-02T09:11:21;10.38;;;8.82;;
16401;SDS011;8310;44.626;11.176;2023-02-02T09:13:52;12.45;;;9.02;;
16401;SDS011;8310;44.626;11.176;2023-02-02T09:16:21;12.40;;;8.35;;
16401;SDS011;8310;44.626;11.176;2023-02-02T09:18:50;13.93;;;8.77;;
16401;SDS011;8310;44.626;11.176;2023-02-02T09:21:20;13.57;;;8.68;;
16401;SDS011;8310;44.626;11.176;2023-02-02T09:23:48;10.82;;;8.38;;
16401;SDS011;8310;44.626;11.176;2023-02-02T09:26:18;14.68;;;8.65;;
16401;SDS011;8310;44.626;11.176;2023-02-02T09:28:47;13.43;;;9.52;;
16401;SDS011;8310;44.626;11.176;2023-02-02T09:31:16;12.88;;;9.70;;
16401;SDS011;8310;44.626;11.176;2023-02-02T09:33:44;11.00;;;9.50;;
16401;SDS011;8310;44.626;11.176;2023-02-02T09:36:14;11.32;;;9.20;;
16401;SDS011;8310;44.626;11.176;2023-02-02T09:38:44;10.80;;;9.05;;
16401;SDS011;8310;44.626;11.176;2023-02-02T09:41:22;12.57;;;9.57;;
16401;SDS011;8310;44.626;11.176;2023-02-02T09:44:12;13.13;;;9.25;;
16401;SDS011;8310;44.626;11.176;2023-02-02T09:46:50;12.93;;;9.68;;
16401;SDS011;8310;44.626;11.176;2023-02-02T09:49:27;12.05;;;8.52;;
16401;SDS011;8310;44.626;11.176;2023-02-02T09:52:02;10.25;;;9.23;;
16401;SDS011;8310;44.626;11.176;2023-02-02T09:54:35;10.75;;;8.60;;
16401;SDS011;8310;44.626;11.176;2023-02-02T09:57:10;9.55;;;8.40;;
16401;SDS011;8310;44.626;11.176;2023-02-02T09:59:42;10.30;;;7.65;;
16401;SDS011;8310;44.626;11.176;2023-02-02T10:02:12;10.38;;;8.13;;
16401;SDS011;8310;44.626;11.176;2023-02-02T10:04:44;9.77;;;8.40;;
16401;SDS011;8310;44.626;11.176;2023-02-02T10:07:18;11.68;;;8.63;;
16401;SDS011;8310;44.626;11.176;2023-02-02T10:09:52;11.30;;;8.00;;
16401;SDS011;8310;44.626;11.176;2023-02-02T10:12:26;8.85;;;7.95;;
16401;SDS011;8310;44.626;11.176;2023-02-02T10:15:01;11.55;;;8.55;;
16401;SDS011;8310;44.626;11.176;2023-02-02T10:17:38;11.82;;;8.05;;
16401;SDS011;8310;44.626;11.176;2023-02-02T10:20:14;9.27;;;7.78;;
16401;SDS011;8310;44.626;11.176;2023-02-02T10:22:49;10.20;;;7.38;;
16401;SDS011;8310;44.626;11.176;2023-02-02T10:25:17;10.65;;;8.52;;
16401;SDS011;8310;44.626;11.176;2023-02-02T10:27:50;9.50;;;7.68;;
16401;SDS011;8310;44.626;11.176;2023-02-02T10:30:28;8.93;;;7.97;;
16401;SDS011;8310;44.626;11.176;2023-02-02T10:33:06;8.35;;;7.45;;
16401;SDS011;8310;44.626;11.176;2023-02-02T10:35:43;11.07;;;7.43;;
16401;SDS011;8310;44.626;11.176;2023-02-02T10:38:18;9.82;;;7.30;;
16401;SDS011;8310;44.626;11.176;2023-02-02T10:40:56;8.70;;;7.18;;
16401;SDS011;8310;44.626;11.176;2023-02-02T10:43:33;8.70;;;7.13;;
16401;SDS011;8310;44.626;11.176;2023-02-02T10:46:22;8.57;;;7.18;;
16401;SDS011;8310;44.626;11.176;2023-02-02T10:48:55;9.50;;;7.05;;
16401;SDS011;8310;44.626;11.176;2023-02-02T10:51:35;7.90;;;6.90;;
16401;SDS011;8310;44.626;11.176;2023-02-02T10:54:07;10.68;;;6.30;;
16401;SDS011;8310;44.626;11.176;2023-02-02T10:56:45;9.63;;;6.50;;
16401;SDS011;8310;44.626;11.176;2023-02-02T10:59:18;7.00;;;5.57;;
16401;SDS011;8310;44.626;11.176;2023-02-02T11:01:50;6.40;;;5.55;;
16401;SDS011;8310;44.626;11.176;2023-02-02T11:04:18;5.45;;;4.93;;
16401;SDS011;8310;44.626;11.176;2023-02-02T11:07:04;8.63;;;4.80;;
16401;SDS011;8310;44.626;11.176;2023-02-02T11:09:34;4.85;;;4.25;;
16401;SDS011;8310;44.626;11.176;2023-02-02T11:12:08;3.30;;;3.10;;
16401;SDS011;8310;44.626;11.176;2023-02-02T11:14:44;4.50;;;3.50;;
16401;SDS011;8310;44.626;11.176;2023-02-02T11:17:17;3.70;;;3.08;;
16401;SDS011;8310;44.626;11.176;2023-02-02T11:19:46;3.97;;;3.30;;
16401;SDS011;8310;44.626;11.176;2023-02-02T11:22:24;3.17;;;2.88;;
16401;SDS011;8310;44.626;11.176;2023-02-02T11:24:56;3.90;;;3.30;;
16401;SDS011;8310;44.626;11.176;2023-02-02T11:27:26;4.22;;;3.05;;
16401;SDS011;8310;44.626;11.176;2023-02-02T11:29:57;3.22;;;2.60;;
16401;SDS011;8310;44.626;11.176;2023-02-02T11:32:27;2.60;;;2.40;;
16401;SDS011;8310;44.626;11.176;2023-02-02T11:35:14;2.83;;;2.63;;
16401;SDS011;8310;44.626;11.176;2023-02-02T11:37:52;3.55;;;2.50;;
16401;SDS011;8310;44.626;11.176;2023-02-02T11:40:34;3.45;;;2.50;;
16401;SDS011;8310;44.626;11.176;2023-02-02T11:43:04;2.20;;;2.00;;
16401;SDS011;8310;44.626;11.176;2023-02-02T11:45:43;2.00;;;1.80;;
16401;SDS011;8310;44.626;11.176;2023-02-02T11:48:14;2.00;;;1.33;;
16401;SDS011;8310;44.626;11.176;2023-02-02T11:50:45;1.77;;;1.23;;
16401;SDS011;8310;44.626;11.176;2023-02-02T11:53:21;1.30;;;1.27;;
16401;SDS011;8310;44.626;11.176;2023-02-02T11:55:52;1.50;;;1.27;;
16401;SDS011;8310;44.626;11.176;2023-02-02T11:58:21;1.38;;;1.20;;
16401;SDS011;8310;44.626;11.176;2023-02-02T12:00:57;2.55;;;1.52;;
16401;SDS011;8310;44.626;11.176;2023-02-02T12:03:27;1.73;;;1.60;;
16401;SDS011;8310;44.626;11.176;2023-02-02T12:05:56;1.20;;;1.20;;
16401;SDS011;8310;44.626;11.176;2023-02-02T12:08:26;1.45;;;1.27;;
16401;SDS011;8310;44.626;11.176;2023-02-02T12:10:57;1.23;;;1.13;;
16401;SDS011;8310;44.626;11.176;2023-02-02T12:13:37;1.95;;;1.45;;
16401;SDS011;8310;44.626;11.176;2023-02-02T12:16:16;1.73;;;1.20;;
16401;SDS011;8310;44.626;11.176;2023-02-02T12:18:57;1.30;;;1.20;;
16401;SDS011;8310;44.626;11.176;2023-02-02T12:21:35;1.20;;;1.20;;
16401;SDS011;8310;44.626;11.176;2023-02-02T12:27:03;1.60;;;1.50;;
16401;SDS011;8310;44.626;11.176;2023-02-02T12:29:45;2.80;;;1.85;;
16401;SDS011;8310;44.626;11.176;2023-02-02T12:32:45;1.42;;;1.30;;
16401;SDS011;8310;44.626;11.176;2023-02-02T12:35:28;1.83;;;1.52;;
16401;SDS011;8310;44.626;11.176;2023-02-02T12:38:09;1.73;;;1.60;;
16401;SDS011;8310;44.626;11.176;2023-02-02T12:40:49;3.42;;;1.90;;
16401;SDS011;8310;44.626;11.176;2023-02-02T12:43:35;2.05;;;1.67;;
16401;SDS011;8310;44.626;11.176;2023-02-02T12:46:08;1.67;;;1.58;;
16401;SDS011;8310;44.626;11.176;2023-02-02T12:48:49;1.77;;;1.67;;
16401;SDS011;8310;44.626;11.176;2023-02-02T12:54:34;1.80;;;1.70;;
16401;SDS011;8310;44.626;11.176;2023-02-02T12:57:34;2.20;;;1.55;;
16401;SDS011;8310;44.626;11.176;2023-02-02T13:00:18;2.55;;;1.63;;
16401;SDS011;8310;44.626;11.176;2023-02-02T13:03:10;1.60;;;1.50;;
16401;SDS011;8310;44.626;11.176;2023-02-02T13:05:52;1.27;;;1.10;;
16401;SDS011;8310;44.626;11.176;2023-02-02T13:08:29;2.95;;;1.45;;
16401;SDS011;8310;44.626;11.176;2023-02-02T13:11:02;1.33;;;1.25;;
16401;SDS011;8310;44.626;11.176;2023-02-02T13:13:52;1.25;;;1.23;;
16401;SDS011;8310;44.626;11.176;2023-02-02T13:16:21;3.22;;;1.50;;
16401;SDS011;8310;44.626;11.176;2023-02-02T13:18:50;1.38;;;1.27;;
16401;SDS011;8310;44.626;11.176;2023-02-02T13:21:21;1.92;;;1.80;;
16401;SDS011;8310;44.626;11.176;2023-02-02T13:23:50;1.45;;;1.35;;
16401;SDS011;8310;44.626;11.176;2023-02-02T13:26:23;2.17;;;1.55;;
16401;SDS011;8310;44.626;11.176;2023-02-02T13:28:54;1.77;;;1.30;;
16401;SDS011;8310;44.626;11.176;2023-02-02T13:31:32;1.40;;;1.30;;
16401;SDS011;8310;44.626;11.176;2023-02-02T13:34:05;1.42;;;1.33;;
16401;SDS011;8310;44.626;11.176;2023-02-02T13:36:43;2.25;;;1.70;;
16401;SDS011;8310;44.626;11.176;2023-02-02T13:39:17;1.80;;;1.70;;
16401;SDS011;8310;44.626;11.176;2023-02-02T13:41:48;1.52;;;1.42;;
16401;SDS011;8310;44.626;11.176;2023-02-02T13:44:19;1.58;;;1.48;;
16401;SDS011;8310;44.626;11.176;2023-02-02T13:46:54;1.70;;;1.58;;
16401;SDS011;8310;44.626;11.176;2023-02-02T13:49:27;1.27;;;1.27;;
16401;SDS011;8310;44.626;11.176;2023-02-02T13:52:09;2.78;;;1.60;;
16401;SDS011;8310;44.626;11.176;2023-02-02T13:54:58;1.58;;;1.48;;
16401;SDS011;8310;44.626;11.176;2023-02-02T13:58:04;1.65;;;1.63;;
16401;SDS011;8310;44.626;11.176;2023-02-02T14:00:58;5.65;;;2.08;;
16401;SDS011;8310;44.626;11.176;2023-02-02T14:03:32;2.30;;;2.10;;
16401;SDS011;8310;44.626;11.176;2023-02-02T14:06:05;1.98;;;1.77;;
16401;SDS011;8310;44.626;11.176;2023-02-02T14:08:35;2.92;;;1.88;;
16401;SDS011;8310;44.626;11.176;2023-02-02T14:11:03;1.90;;;1.80;;
16401;SDS011;8310;44.626;11.176;2023-02-02T14:13:35;2.20;;;2.00;;
16401;SDS011;8310;44.626;11.176;2023-02-02T14:19:14;2.67;;;2.13;;
16401;SDS011;8310;44.626;11.176;2023-02-02T14:22:00;1.80;;;1.70;;
16401;SDS011;8310;44.626;11.176;2023-02-02T14:24:37;2.13;;;1.67;;
16401;SDS011;8310;44.626;11.176;2023-02-02T14:30:44;2.20;;;2.00;;
16401;SDS011;8310;44.626;11.176;2023-02-02T14:37:19;2.45;;;1.90;;
16401;SDS011;8310;44.626;11.176;2023-02-02T14:40:15;1.98;;;1.77;;
16401;SDS011;8310;44.626;11.176;2023-02-02T14:42:55;2.78;;;1.70;;
16401;SDS011;8310;44.626;11.176;2023-02-02T14:46:15;6.15;;;1.90;;
16401;SDS011;8310;44.626;11.176;2023-02-02T14:49:04;1.88;;;1.52;;
16401;SDS011;8310;44.626;11.176;2023-02-02T14:51:46;2.88;;;1.67;;
16401;SDS011;8310;44.626;11.176;2023-02-02T14:54:19;1.92;;;1.42;;
16401;SDS011;8310;44.626;11.176;2023-02-02T14:56:50;2.38;;;1.90;;
16401;SDS011;8310;44.626;11.176;2023-02-02T14:59:22;3.05;;;1.60;;
16401;SDS011;8310;44.626;11.176;2023-02-02T15:01:53;2.78;;;1.50;;
16401;SDS011;8310;44.626;11.176;2023-02-02T15:04:26;2.28;;;1.52;;
16401;SDS011;8310;44.626;11.176;2023-02-02T15:06:55;2.83;;;1.42;;
16401;SDS011;8310;44.626;11.176;2023-02-02T15:09:59;2.72;;;1.40;;
16401;SDS011;8310;44.626;11.176;2023-02-02T15:12:28;2.30;;;1.60;;
16401;SDS011;8310;44.626;11.176;2023-02-02T15:17:47;1.83;;;1.73;;
16401;SDS011;8310;44.626;11.176;2023-02-02T15:20:23;3.42;;;1.40;;
16401;SDS011;8310;44.626;11.176;2023-02-02T15:22:55;1.45;;;1.20;;
16401;SDS011;8310;44.626;11.176;2023-02-02T15:25:28;1.95;;;1.30;;
16401;SDS011;8310;44.626;11.176;2023-02-02T15:28:02;1.30;;;1.30;;
16401;SDS011;8310;44.626;11.176;2023-02-02T15:30:35;1.40;;;1.30;;
16401;SDS011;8310;44.626;11.176;2023-02-02T15:33:10;2.22;;;1.48;;
16401;SDS011;8310;44.626;11.176;2023-02-02T15:35:53;2.20;;;1.40;;